WetterOnline ( https://www.wetteronline.ch )

Wetter aktuell Magdeburg

Aktuelles Wetter: Magdeburg (85m)

6-stündlich | Neueste Meldungen
Ortszeit Temperatur Wetter
Mo, 20.01. 13:00 4.9° C bewölkt
Mo, 20.01. 7:00 -0.5° C Nebel
Mo, 20.01. 1:00 0.2° C wolkenlos
So, 19.01. 19:00 4.6° C bedeckt
So, 19.01. 13:00 5.1° C wolkig
So, 19.01. 7:00 2.6° C bewölkt
So, 19.01. 1:00 2.7° C wolkig
Sa, 18.01. 19:00 3.5° C wolkig
Ortszeit Temperatur Wetter
Mo, 20.01. 15:30 5.8° C bewölkt
Mo, 20.01. 15:20 5.8° C bewölkt
Mo, 20.01. 15:10 5.4° C wolkig
Mo, 20.01. 15:00 5.6° C bedeckt
Mo, 20.01. 14:50 5.6° C bedeckt
Mo, 20.01. 14:40 5.7° C bedeckt
Mo, 20.01. 14:30 5.7° C bedeckt
Mo, 20.01. 14:00 5.7° C bedeckt
Ortszeit Relative Feuchte Sichtweite
Mo, 20.01. 13:00 86% 21 km
Mo, 20.01. 7:00 99% 0.3 km
Mo, 20.01. 1:00 93% 14 km
So, 19.01. 19:00 86% 23 km
So, 19.01. 13:00 84% 23 km
So, 19.01. 7:00 91% 23 km
So, 19.01. 1:00 89% 18 km
Sa, 18.01. 19:00 84% 35 km
Ortszeit Relative Feuchte Sichtweite
Mo, 20.01. 15:30 77% 35 km
Mo, 20.01. 15:20 77% -
Mo, 20.01. 15:10 76% -
Mo, 20.01. 15:00 75% 40 km
Mo, 20.01. 14:50 75% -
Mo, 20.01. 14:40 77% -
Mo, 20.01. 14:30 79% 25 km
Mo, 20.01. 14:00 82% 30 km
Ortszeit Niederschlagsmenge Niederschlagsart
Mo, 20.01. 13:00 0.1 l/m2 in 6 Std. Schnee
Mo, 20.01. 7:00 0.0 l/m2 in 12 Std. -
Mo, 20.01. 1:00 0.0 l/m2 in 6 Std. -
So, 19.01. 19:00 0.2 l/m2 in 12 Std. Regen
So, 19.01. 13:00 0.2 l/m2 in 6 Std. Regen
So, 19.01. 7:00 0.1 l/m2 in 12 Std. Regen
So, 19.01. 1:00 0.0 l/m2 in 6 Std. -
Sa, 18.01. 19:00 0.6 l/m2 in 12 Std. Regen
Ortszeit Niederschlagsmenge Niederschlagsart
Mo, 20.01. 15:30 0.0 l/m2 in 1 Std. -
Mo, 20.01. 15:20 keine Meldung -
Mo, 20.01. 15:10 keine Meldung -
Mo, 20.01. 15:00 0.0 l/m2 in 1 Std. -
Mo, 20.01. 14:50 keine Meldung -
Mo, 20.01. 14:40 keine Meldung -
Mo, 20.01. 14:30 0.0 l/m2 in 1 Std. -
Mo, 20.01. 14:00 0.0 l/m2 in 1 Std. -
Ortszeit Stärke Spitze Richtung
km/h Bft. km/h Grad Sektor
Mo, 20.01. 13:00 7 2 14 280° W
Mo, 20.01. 7:00 6 1 17 240° SW
Mo, 20.01. 1:00 6 1 17 290° W
So, 19.01. 19:00 6 1 22 290° W
So, 19.01. 13:00 7 2 18 290° W
So, 19.01. 7:00 4 1 18 300° NW
So, 19.01. 1:00 7 2 22 260° W
Sa, 18.01. 19:00 7 2 40 240° SW
Ortszeit Stärke Spitze Richtung
km/h Bft. km/h Grad Sektor
Mo, 20.01. 15:30 6 1 13 250° W
Mo, 20.01. 15:20 6 1 - 250° W
Mo, 20.01. 15:10 7 2 - 270° W
Mo, 20.01. 15:00 6 1 15 280° W
Mo, 20.01. 14:50 6 1 - 280° W
Mo, 20.01. 14:40 7 2 - 280° W
Mo, 20.01. 14:30 7 2 14 260° W
Mo, 20.01. 14:00 7 2 11 290° W
Ortszeit Untergrenze Bedeckung Gattung
total tief tief mittel hoch
Mo, 20.01. 13:00 210 m 7/8 7/8 - - -
Mo, 20.01. 7:00 30 m 8/8 8/8 - - -
Mo, 20.01. 1:00 - 0/8 0/8 - - -
So, 19.01. 19:00 990 m 8/8 8/8 - - -
So, 19.01. 13:00 240 m 5/8 5/8 - - -
So, 19.01. 7:00 1320 m 7/8 7/8 - - -
So, 19.01. 1:00 510 m 8/8 2/8 - - -
Sa, 18.01. 19:00 1140 m 5/8 5/8 - - -
Ortszeit Bedeckungsgrad in Achtel und Wolkenuntergrenze
Mo, 20.01. 15:30 6(510m) 7(630m) 7(9000m)
Mo, 20.01. 15:20 6(510m) 7(630m) 7(9000m)
Mo, 20.01. 15:10 6(510m) 6(9000m)
Mo, 20.01. 15:00 8(510m)
Mo, 20.01. 14:50 8(510m)
Mo, 20.01. 14:40 8(510m)
Mo, 20.01. 14:30 8(570m)
Mo, 20.01. 14:00 8(570m)
Ortszeit Luftdruck NN (hPa) Tendenz (hPa in 3 Std.)
Mo, 20.01. 13:00 1047 + 0,2
Mo, 20.01. 7:00 1046 + 0,8
Mo, 20.01. 1:00 1044 + 2,0
So, 19.01. 19:00 1040 + 2,7
So, 19.01. 13:00 1035 + 1,9
So, 19.01. 7:00 1031 + 2,0
So, 19.01. 1:00 1027 + 1,4
Sa, 18.01. 19:00 1025 + 1,6
Ortszeit Luftdruck NN (hPa) Tendenz (hPa in 3 Std.)
Mo, 20.01. 15:30 1047 - 1,2
Mo, 20.01. 15:20 1047 keine Meldung
Mo, 20.01. 15:10 1047 keine Meldung
Mo, 20.01. 15:00 1047 - 1,0
Mo, 20.01. 14:50 1047 keine Meldung
Mo, 20.01. 14:40 1047 keine Meldung
Mo, 20.01. 14:30 1047 - 0,8
Mo, 20.01. 14:00 1047 - 0,5
Ortszeit Schneehöhe (cm)
Mo, 20.01. 13:00 0
Mo, 20.01. 7:00 0
Mo, 20.01. 1:00 0
So, 19.01. 19:00 0
So, 19.01. 13:00 0
So, 19.01. 7:00 0
So, 19.01. 1:00 0
Sa, 18.01. 19:00 0
Ortszeit Schneehöhe (cm)
Mo, 20.01. 15:30 0
Mo, 20.01. 15:20 0
Mo, 20.01. 15:10 0
Mo, 20.01. 15:00 0
Mo, 20.01. 14:50 0
Mo, 20.01. 14:40 0
Mo, 20.01. 14:30 0
Mo, 20.01. 14:00 0
Link zu dieser Seite / Seite empfehlen

Das Wetter in ...